Time;durP1;ratioP1;P1;durP2;ratioP2;P2;SDS_P1;SDS_P2;PMS_P1;PMS_P2;Temp;Humidity;BMP_temperature;BMP_pressure;BME280_temperature;BME280_humidity;BME280_pressure;Samples;Min_cycle;Max_cycle;Signal;HPM_P1;HPM_P2
2022/11/03 00:00:43;;;;;;;3.42;1.60;;;9.20;99.90;;;;;;21063468;28;20036;-65
2022/11/03 00:10:46;;;;;;;4.10;2.35;;;9.20;99.90;;;;;;21088445;28;20070;-60
2022/11/03 00:21:06;;;;;;;4.00;1.85;;;9.30;99.90;;;;;;21128485;28;20397;-60
2022/11/03 00:31:11;;;;;;;4.07;1.60;;;9.20;99.90;;;;;;21081943;28;20039;-60
2022/11/03 00:41:15;;;;;;;5.82;1.83;;;9.10;99.90;;;;;;21101564;28;20439;-61
2022/11/03 00:51:24;;;;;;;3.60;1.75;;;9.10;99.90;;;;;;21080751;28;20493;-61
2022/11/03 01:01:30;;;;;;;3.92;1.45;;;9.00;99.90;;;;;;21063413;28;20043;-61
2022/11/03 01:11:45;;;;;;;4.88;1.98;;;9.00;99.90;;;;;;21118881;28;20036;-61
2022/11/03 01:21:48;;;;;;;5.28;2.08;;;9.20;99.90;;;;;;21120952;28;20065;-65
2022/11/03 01:31:50;;;;;;;7.95;2.65;;;9.30;99.90;;;;;;21098248;28;20373;-66
2022/11/03 01:41:53;;;;;;;5.13;2.22;;;9.10;99.90;;;;;;21118158;28;20058;-61
2022/11/03 01:52:14;;;;;;;4.13;2.38;;;8.90;99.90;;;;;;21064842;28;20056;-65
2022/11/03 02:02:17;;;;;;;6.05;2.25;;;9.00;99.90;;;;;;21088741;28;20040;-60
2022/11/03 02:12:22;;;;;;;5.22;2.30;;;9.10;99.90;;;;;;21116546;28;20374;-61
2022/11/03 02:22:50;;;;;;;5.05;2.47;;;9.00;99.90;;;;;;21086614;28;20070;-65
2022/11/03 02:33:14;;;;;;;5.35;2.30;;;8.80;99.90;;;;;;21068608;28;20043;-60
2022/11/03 02:43:18;;;;;;;4.35;1.83;;;8.70;99.90;;;;;;21146192;28;20388;-60
2022/11/03 02:53:21;;;;;;;4.95;2.15;;;8.80;99.90;;;;;;21081108;28;20039;-65
2022/11/03 03:03:39;;;;;;;4.22;2.33;;;8.80;99.90;;;;;;21078828;28;20088;-60
2022/11/03 03:13:43;;;;;;;4.07;2.00;;;8.80;99.90;;;;;;21116219;28;20039;-61
2022/11/03 03:23:57;;;;;;;3.90;2.10;;;8.90;99.90;;;;;;21112208;28;20561;-65
2022/11/03 03:34:00;;;;;;;6.07;2.70;;;9.00;99.90;;;;;;21074066;28;20035;-65
2022/11/03 03:44:07;;;;;;;5.20;2.13;;;9.00;99.90;;;;;;21100282;28;20040;-60
2022/11/03 03:54:09;;;;;;;6.32;2.50;;;9.00;99.90;;;;;;21108592;28;20027;-65
2022/11/03 04:04:12;;;;;;;5.53;2.30;;;8.90;99.90;;;;;;21091791;28;20549;-60
2022/11/03 04:24:36;;;;;;;4.30;2.65;;;8.80;99.90;;;;;;21082678;28;20043;-64
2022/11/03 04:34:39;;;;;;;3.58;2.42;;;8.70;99.90;;;;;;21114467;28;20036;-64
2022/11/03 04:44:41;;;;;;;4.75;2.70;;;8.50;99.90;;;;;;21063034;28;20117;-60
2022/11/03 04:54:48;;;;;;;5.65;3.00;;;8.30;99.90;;;;;;21088848;28;20048;-60
2022/11/03 05:04:50;;;;;;;7.47;3.22;;;8.40;99.90;;;;;;21048790;28;20043;-60
2022/11/03 05:14:53;;;;;;;10.32;3.63;;;8.40;99.90;;;;;;21113086;28;20093;-60
2022/11/03 05:25:02;;;;;;;6.85;3.55;;;8.30;99.90;;;;;;21109719;28;20044;-64
2022/11/03 05:35:21;;;;;;;13.27;6.95;;;8.10;99.90;;;;;;21086062;28;20039;-60
2022/11/03 05:45:30;;;;;;;19.27;9.05;;;8.00;99.90;;;;;;21105712;28;20048;-61
2022/11/03 05:55:34;;;;;;;16.52;7.35;;;8.20;99.90;;;;;;21096570;28;20092;-60
2022/11/03 06:05:37;;;;;;;9.30;4.30;;;8.30;99.90;;;;;;21109603;28;20053;-65
2022/11/03 06:15:57;;;;;;;10.85;3.50;;;8.40;99.90;;;;;;21081127;28;20069;-60
2022/11/03 06:26:01;;;;;;;7.30;4.23;;;8.50;99.90;;;;;;21104695;28;20040;-66
2022/11/03 06:36:18;;;;;;;9.88;5.38;;;8.70;99.90;;;;;;21089051;28;20124;-61
2022/11/03 06:46:25;;;;;;;9.02;5.72;;;9.10;99.90;;;;;;21106084;28;20052;-61
2022/11/03 06:56:30;;;;;;;5.97;3.38;;;9.30;99.90;;;;;;21087706;28;20031;-61
2022/11/03 07:06:35;;;;;;;36.80;17.83;;;9.50;99.90;;;;;;21135414;28;20035;-60
2022/11/03 07:16:44;;;;;;;40.95;18.52;;;9.80;99.90;;;;;;21085996;28;20264;-67
2022/11/03 07:26:46;;;;;;;49.80;18.90;;;10.00;99.90;;;;;;21125235;28;20388;-61
2022/11/03 07:36:51;;;;;;;29.33;15.18;;;10.20;99.90;;;;;;21083197;28;20032;-66
2022/11/03 07:46:54;;;;;;;28.38;15.40;;;10.10;99.90;;;;;;21079666;28;20048;-60
2022/11/03 07:57:04;;;;;;;30.67;15.27;;;10.10;99.90;;;;;;21119687;28;20065;-67
2022/11/03 08:07:07;;;;;;;32.70;16.73;;;10.20;99.90;;;;;;21077333;28;20035;-60
2022/11/03 08:17:09;;;;;;;47.85;20.30;;;10.30;99.90;;;;;;21065411;28;20054;-60
2022/11/03 08:27:12;;;;;;;38.85;19.27;;;10.20;99.90;;;;;;21095759;28;20035;-60
2022/11/03 08:37:16;;;;;;;38.97;19.30;;;9.90;99.90;;;;;;21082957;28;20040;-60
2022/11/03 08:47:18;;;;;;;41.85;19.67;;;9.70;99.90;;;;;;21072362;28;20039;-67
2022/11/03 08:57:21;;;;;;;43.55;20.17;;;9.70;99.90;;;;;;21114037;28;20032;-61
2022/11/03 09:07:23;;;;;;;40.90;19.33;;;9.90;99.90;;;;;;21114950;28;20040;-61
2022/11/03 09:17:25;;;;;;;45.35;18.45;;;9.90;99.90;;;;;;21066336;28;20109;-67
2022/11/03 09:27:28;;;;;;;38.65;19.13;;;9.90;99.90;;;;;;21104666;28;20104;-67
2022/11/03 09:37:31;;;;;;;32.45;16.60;;;10.30;99.90;;;;;;21112145;28;20035;-67
2022/11/03 09:47:37;;;;;;;51.67;21.83;;;10.50;99.90;;;;;;21150525;28;20047;-67
2022/11/03 09:57:42;;;;;;;37.50;18.55;;;10.50;99.90;;;;;;21102313;28;20100;-67
2022/11/03 10:07:45;;;;;;;27.52;15.27;;;11.30;99.90;;;;;;21115194;28;20039;-61
2022/11/03 10:17:49;;;;;;;28.67;14.20;;;12.40;99.90;;;;;;21139722;28;20035;-61
2022/11/03 10:27:51;;;;;;;22.42;11.40;;;13.00;99.90;;;;;;21136452;28;20035;-65
2022/11/03 10:37:55;;;;;;;14.00;7.93;;;13.40;99.90;;;;;;21103824;28;20047;-61
2022/11/03 10:48:08;;;;;;;15.27;8.82;;;13.70;99.90;;;;;;21096103;28;20515;-61
2022/11/03 10:58:11;;;;;;;21.05;10.45;;;13.20;99.90;;;;;;21084128;28;20032;-61
2022/11/03 11:08:17;;;;;;;22.63;10.85;;;12.90;99.90;;;;;;21079617;28;20036;-61
2022/11/03 11:18:29;;;;;;;22.08;12.52;;;12.80;99.90;;;;;;21116021;28;20096;-67
2022/11/03 11:28:32;;;;;;;12.45;8.38;;;12.70;99.90;;;;;;21081268;28;20032;-60
2022/11/03 11:38:54;;;;;;;11.27;6.80;;;14.50;99.90;;;;;;21105845;28;20036;-59
2022/11/03 11:48:56;;;;;;;9.75;6.43;;;16.30;99.90;;;;;;21101253;28;20048;-62
2022/11/03 11:58:59;;;;;;;13.48;7.60;;;16.20;99.90;;;;;;21084433;28;20471;-64
2022/11/03 12:09:19;;;;;;;15.88;9.18;;;15.60;99.90;;;;;;21112650;28;20061;-61
2022/11/03 12:19:38;;;;;;;12.57;8.57;;;15.10;99.90;;;;;;21077451;28;20550;-66
2022/11/03 12:29:40;;;;;;;16.23;10.27;;;14.60;99.90;;;;;;21099300;28;20085;-61
2022/11/03 12:39:43;;;;;;;11.77;6.55;;;13.90;99.90;;;;;;21096972;28;20036;-60
2022/11/03 12:49:46;;;;;;;15.73;9.70;;;13.20;99.90;;;;;;21128617;28;20489;-60
2022/11/03 12:59:50;;;;;;;14.48;9.63;;;12.50;99.90;;;;;;21074789;28;20400;-61
2022/11/03 13:09:52;;;;;;;14.23;8.95;;;12.30;99.90;;;;;;21099417;28;20036;-66
2022/11/03 13:19:55;;;;;;;22.10;12.52;;;12.10;99.90;;;;;;21058822;28;20092;-60
2022/11/03 13:29:57;;;;;;;32.58;15.98;;;11.60;99.90;;;;;;21132843;28;20477;-60
2022/11/03 13:40:01;;;;;;;25.52;15.05;;;11.00;99.90;;;;;;21089906;28;20092;-66
2022/11/03 13:50:03;;;;;;;21.77;13.98;;;10.60;99.90;;;;;;21069643;28;20081;-66
2022/11/03 14:00:07;;;;;;;30.67;16.42;;;10.30;99.90;;;;;;21098632;28;20107;-59
2022/11/03 14:10:16;;;;;;;21.93;13.80;;;10.20;99.90;;;;;;21081691;28;20085;-60
2022/11/03 14:20:19;;;;;;;27.90;15.35;;;10.50;99.90;;;;;;21091869;28;20277;-60
2022/11/03 14:30:21;;;;;;;26.23;14.93;;;10.60;99.90;;;;;;21063120;28;20044;-67
2022/11/03 14:50:45;;;;;;;14.50;8.82;;;10.20;99.90;;;;;;21089927;28;20470;-67
2022/11/03 15:00:47;;;;;;;15.55;8.70;;;10.20;99.90;;;;;;21089135;28;20036;-67
2022/11/03 15:10:50;;;;;;;12.90;8.00;;;10.20;99.90;;;;;;21094564;28;20108;-67
2022/11/03 15:20:53;;;;;;;12.70;7.00;;;10.20;99.90;;;;;;21103447;28;20040;-66
2022/11/03 15:30:55;;;;;;;10.07;5.63;;;10.20;99.90;;;;;;21080948;28;20039;-66
2022/11/03 15:41:14;;;;;;;10.70;6.28;;;10.10;99.90;;;;;;21114126;28;20035;-60
2022/11/03 15:51:17;;;;;;;15.85;8.95;;;9.90;99.90;;;;;;21078706;28;20052;-65
2022/11/03 16:01:20;;;;;;;15.63;9.35;;;9.70;99.90;;;;;;21059936;28;20036;-60
2022/11/03 16:11:22;;;;;;;19.88;11.15;;;9.50;99.90;;;;;;21050964;28;20435;-65
2022/11/03 16:21:25;;;;;;;21.00;12.38;;;9.20;99.90;;;;;;21100597;28;20116;-66
2022/11/03 16:31:28;;;;;;;26.83;14.98;;;9.10;99.90;;;;;;21116747;28;20039;-59
2022/11/03 16:41:31;;;;;;;26.40;15.60;;;9.10;99.90;;;;;;21100126;28;20027;-60
2022/11/03 16:51:34;;;;;;;27.77;15.70;;;9.20;99.90;;;;;;21074579;28;20438;-65
2022/11/03 17:01:38;;;;;;;21.10;11.57;;;9.10;99.90;;;;;;21120539;28;20446;-65
2022/11/03 17:11:41;;;;;;;13.85;8.77;;;8.80;99.90;;;;;;21111321;28;20035;-65
2022/11/03 17:21:44;;;;;;;19.42;10.63;;;8.60;99.90;;;;;;21126701;28;20489;-60
2022/11/03 17:31:49;;;;;;;15.50;7.95;;;8.40;99.90;;;;;;21114389;28;20035;-59
2022/11/03 17:41:51;;;;;;;18.85;9.20;;;8.20;99.90;;;;;;21101421;28;20047;-60
2022/11/03 17:51:55;;;;;;;16.33;9.00;;;8.10;99.90;;;;;;21124726;28;20044;-59
2022/11/03 18:01:58;;;;;;;11.50;6.53;;;8.10;99.90;;;;;;21127329;28;20036;-61
2022/11/03 18:22:23;;;;;;;9.55;5.22;;;8.10;99.90;;;;;;21137974;28;20039;-59
2022/11/03 18:32:25;;;;;;;10.18;4.90;;;8.10;99.90;;;;;;21127663;28;20469;-59
2022/11/03 18:42:28;;;;;;;9.82;5.40;;;8.20;99.90;;;;;;21088324;28;20546;-61
2022/11/03 18:52:37;;;;;;;12.73;6.43;;;8.20;99.90;;;;;;21094071;28;20078;-61
2022/11/03 19:02:40;;;;;;;14.15;7.20;;;8.20;99.90;;;;;;21096537;28;20369;-60
2022/11/03 19:12:44;;;;;;;20.65;9.77;;;8.20;99.90;;;;;;21098278;28;20036;-60
2022/11/03 19:22:47;;;;;;;22.40;9.70;;;8.30;99.90;;;;;;21110820;28;20036;-59
2022/11/03 19:32:55;;;;;;;25.35;13.07;;;8.30;99.90;;;;;;21118423;28;20031;-56
2022/11/03 19:42:58;;;;;;;20.73;12.00;;;8.40;99.90;;;;;;21129672;28;20036;-67
2022/11/03 19:53:03;;;;;;;25.10;14.30;;;8.40;99.90;;;;;;21098156;28;20093;-58
2022/11/03 20:03:06;;;;;;;28.70;15.13;;;8.40;99.90;;;;;;21096628;28;20066;-66
2022/11/03 20:13:13;;;;;;;63.97;14.13;;;8.40;99.90;;;;;;21124614;28;20477;-57
2022/11/03 20:23:30;;;;;;;147.60;17.67;;;8.40;99.90;;;;;;21076420;28;20136;-66
2022/11/03 20:33:41;;;;;;;76.25;8.50;;;8.40;99.90;;;;;;21098442;28;20075;-58
2022/11/03 20:43:54;;;;;;;17.48;8.60;;;8.40;99.90;;;;;;21107087;28;20036;-56
2022/11/03 20:53:58;;;;;;;7.90;5.47;;;8.40;99.90;;;;;;21088927;28;20457;-63
2022/11/03 21:04:24;;;;;;;4.78;2.90;;;8.20;99.90;;;;;;21133409;28;20105;-57
2022/11/03 21:14:28;;;;;;;6.28;3.42;;;8.10;99.90;;;;;;21136775;28;20036;-63
2022/11/03 21:24:41;;;;;;;3.80;2.75;;;8.00;99.90;;;;;;21106376;28;20032;-61
2022/11/03 21:34:46;;;;;;;5.88;3.22;;;7.90;99.90;;;;;;21139277;28;20088;-62
2022/11/03 21:44:56;;;;;;;6.07;2.78;;;7.90;99.90;;;;;;21148558;28;20058;-56
2022/11/03 21:55:09;;;;;;;5.07;2.73;;;7.80;99.90;;;;;;21120822;28;20048;-55
2022/11/03 22:05:12;;;;;;;8.10;3.30;;;7.80;99.90;;;;;;21106868;28;20032;-58
2022/11/03 22:36:28;;;;;;;7.10;3.53;;;7.80;99.90;;;;;;21085256;28;20117;-57
2022/11/03 22:46:31;;;;;;;6.13;3.35;;;7.80;99.90;;;;;;21085011;28;20052;-62
2022/11/03 22:56:34;;;;;;;8.25;4.20;;;7.80;99.90;;;;;;21113810;28;20429;-63
2022/11/03 23:06:39;;;;;;;4.35;2.58;;;7.80;99.90;;;;;;21127021;28;20412;-64
2022/11/03 23:16:43;;;;;;;3.25;1.98;;;7.80;99.90;;;;;;21092614;28;20521;-65
2022/11/03 23:26:47;;;;;;;2.47;1.50;;;7.80;99.90;;;;;;21113965;28;20389;-65
2022/11/03 23:36:51;;;;;;;6.28;2.42;;;7.90;99.90;;;;;;21096288;28;20035;-59
